Flight Track Log - Related Links

Times and Time Zones

All times are in EDT time to prevent confusion due to time zone crossing. See the N556VP flight status page for this flight to view local times or setup timezone preferences in your user account.

Time Position Orientation Groundspeed Altitude Reporting Facility
EDT Latitude Longitude Course Direction KTS MPH feet Rate Location/Type
Fri 10:46:55 AM 31.8819 -102.2547 320° Northwest 218 251 8,300  Level Fort Worth Center
Fri 10:47:55 AM 31.9406 -102.3092 322° Northwest 302 348 10,400 2,150 Climbing Fort Worth Center
Fri 10:48:55 AM 32.0028 -102.3689 321° Northwest 322 371 12,600 1,500 Climbing Fort Worth Center
Fri 10:49:55 AM 32.0772 -102.4392 321° Northwest 327 376 13,400 1,600 Climbing Fort Worth Center
Fri 10:50:55 AM 32.1550 -102.4753 339° North 338 389 15,800 1,300 Climbing Fort Worth Center
Fri 10:51:00 AM 32.2775 -102.5409 316° Northwest  Level FlightAware Approximate
Fri 10:51:55 AM 32.2608 -102.4444 14° North 340 391 16,000  Level Fort Worth Center
Fri 10:52:00 AM 32.3337 -102.6003 320° Northwest  Level FlightAware Approximate
Fri 10:52:55 AM 32.3464 -102.4933 334° Northwest 339 390 16,000  Level Fort Worth Center
Fri 10:53:54 AM 32.4183 -102.5739 317° Northwest 332 382 17,200 1,300 Climbing Fort Worth Center
Fri 10:54:55 AM 32.4922 -102.6494 319° Northwest 343 395 18,600 1,438 Climbing Fort Worth Center
Fri 10:55:55 AM 32.5664 -102.7253 319° Northwest 349 402 20,100 1,500 Climbing Fort Worth Center
Fri 10:56:55 AM 32.6403 -102.8036 318° Northwest 349 402 21,600 1,500 Climbing Fort Worth Center
Fri 10:57:55 AM 32.7142 -102.8819 318° Northwest 354 407 23,100 1,513 Climbing Fort Worth Center
Fri 10:58:54 AM 32.7919 -102.9608 320° Northwest 360 414 24,600 1,500 Climbing Fort Worth Center
Fri 11:00:31 AM 32.9164 -103.0936 318° Northwest 376 433 27,000 1,245 Climbing Albuquerque Center
Fri 11:01:33 AM 32.9947 -103.1781 318° Northwest 378 435 27,900 435 Climbing Albuquerque Center
Fri 11:02:35 AM 33.0781 -103.2669 318° Northwest 398 458 27,900  Level Albuquerque Center
Fri 11:03:37 AM 33.1636 -103.3583 318° Northwest 409 471 27,900  Level Albuquerque Center
Fri 11:04:39 AM 33.2661 -103.4689 318° Northwest 412 474 27,900  Level Albuquerque Center
Fri 11:05:41 AM 33.3528 -103.5581 319° Northwest 412 474 27,900  Level Albuquerque Center
Fri 11:06:43 AM 33.4369 -103.6483 318° Northwest 410 472 27,900 48 Level Albuquerque Center
Fri 11:07:45 AM 33.5300 -103.7494 318° Northwest 409 471 28,000 48 Climbing Albuquerque Center
Fri 11:08:47 AM 33.6192 -103.8469 318° Northwest 406 467 28,000  Level Albuquerque Center
Fri 11:09:49 AM 33.7019 -103.9381 318° Northwest 405 466 28,000  Level Albuquerque Center
Fri 11:10:51 AM 33.7911 -104.0356 318° Northwest 405 466 28,000  Level Albuquerque Center
Fri 11:11:53 AM 33.8728 -104.1247 318° Northwest 400 460 28,000  Level Albuquerque Center
Fri 11:12:55 AM 33.9547 -104.2147 318° Northwest 400 460 28,000  Level Albuquerque Center
Fri 11:13:57 AM 34.0417 -104.3100 318° Northwest 398 458 28,000  Level Albuquerque Center
Fri 11:14:59 AM 34.1247 -104.4008 318° Northwest 398 458 28,000  Level Albuquerque Center
Fri 11:16:01 AM 34.2086 -104.4933 318° Northwest 403 464 28,000  Level Albuquerque Center
Fri 11:17:03 AM 34.2917 -104.5867 317° Northwest 401 461 28,000  Level Albuquerque Center
Fri 11:18:05 AM 34.3761 -104.6789 318° Northwest 404 465 28,000  Level Albuquerque Center
Fri 11:19:07 AM 34.4594 -104.7711 318° Northwest 402 463 28,000  Level Albuquerque Center
Fri 11:20:09 AM 34.5425 -104.8633 318° Northwest 400 460 28,000  Level Albuquerque Center
Fri 11:21:11 AM 34.6389 -104.9711 317° Northwest 399 459 28,000 -339 Level Albuquerque Center
Fri 11:22:13 AM 34.7222 -105.0647 317° Northwest 402 463 27,300 -1,016 Descending Albuquerque Center
Fri 11:23:15 AM 34.8036 -105.1558 317° Northwest 397 457 25,900 -1,488 Descending Albuquerque Center
Fri 11:24:18 AM 34.8811 -105.2439 317° Northwest 385 443 24,200 -1,680 Descending Albuquerque Center
Fri 11:25:20 AM 34.9572 -105.3297 317° Northwest 374 430 22,400 -1,694 Descending Albuquerque Center
Fri 11:26:22 AM 35.0317 -105.4147 317° Northwest 367 422 20,700 -1,694 Descending Albuquerque Center
Fri 11:27:24 AM 35.1053 -105.4969 318° Northwest 360 414 18,900 -1,645 Descending Albuquerque Center
Fri 11:28:26 AM 35.1736 -105.5769 316° Northwest 346 398 17,300 -1,790 Descending Albuquerque Center
Fri 11:29:28 AM 35.2511 -105.6658 317° Northwest 334 384 15,200 -1,887 Descending Albuquerque Center
Fri 11:30:30 AM 35.3153 -105.7406 316° Northwest 324 373 13,400 -1,645 Descending Albuquerque Center
Fri 11:31:32 AM 35.3794 -105.8122 318° Northwest 316 364 11,800 -1,403 Descending Albuquerque Center
Fri 11:32:34 AM 35.4358 -105.8769 317° Northwest 296 341 10,500 -1,016 Descending Albuquerque Center
Fri 11:33:36 AM 35.4836 -105.9400 313° West 285 328 9,700 -1,161 Descending Albuquerque Center
Fri 11:34:38 AM 35.5389 -106.0142 312° West 223 257 8,100 -1,258 Descending Albuquerque Center
Fri 11:35:40 AM 35.5783 -106.0714 310° West 218 251 7,100 -968 Descending Albuquerque Center

Login

Don't have an account? Register now (free) for customized features, flight alerts, and more!